sensor_id;sensor_type;location;lat;lon;timestamp;pressure;altitude;pressure_sealevel;temperature;humidity
23164;BME280;31429;42.674;23.350;2022-09-03T00:00:14;94425.53;;;15.03;100.00
23164;BME280;31429;42.674;23.350;2022-09-03T00:01:22;94421.41;;;15.15;100.00
23164;BME280;31429;42.674;23.350;2022-09-03T00:02:30;94452.19;;;15.16;100.00
23164;BME280;31429;42.674;23.350;2022-09-03T00:03:39;94643.63;;;16.31;100.00
23164;BME280;31429;42.674;23.350;2022-09-03T00:08:44;94558.41;;;15.64;100.00
23164;BME280;31429;42.674;23.350;2022-09-03T00:09:52;94380.97;;;14.74;100.00
23164;BME280;31429;42.674;23.350;2022-09-03T00:11:00;94612.13;;;16.12;100.00
23164;BME280;31429;42.674;23.350;2022-09-03T00:12:16;94427.56;;;14.98;100.00
23164;BME280;31429;42.674;23.350;2022-09-03T00:13:23;94592.06;;;16.03;100.00
23164;BME280;31429;42.674;23.350;2022-09-03T00:14:33;94464.91;;;15.19;100.00
23164;BME280;31429;42.674;23.350;2022-09-03T00:15:39;94703.59;;;16.63;100.00
23164;BME280;31429;42.674;23.350;2022-09-03T00:16:44;94427.47;;;15.00;100.00
23164;BME280;31429;42.674;23.350;2022-09-03T00:33:16;94429.69;;;14.91;100.00
23164;BME280;31429;42.674;23.350;2022-09-03T00:36:55;94605.69;;;16.05;100.00
23164;BME280;31429;42.674;23.350;2022-09-03T00:40:31;94630.59;;;16.33;100.00
23164;BME280;31429;42.674;23.350;2022-09-03T00:41:51;94435.56;;;15.08;100.00
23164;BME280;31429;42.674;23.350;2022-09-03T00:43:21;94448.53;;;14.92;100.00
23164;BME280;31429;42.674;23.350;2022-09-03T00:45:26;94544.34;;;15.55;100.00
23164;BME280;31429;42.674;23.350;2022-09-03T02:29:12;94625.13;;;15.68;100.00
23164;BME280;31429;42.674;23.350;2022-09-03T02:31:05;94499.88;;;14.79;100.00
23164;BME280;31429;42.674;23.350;2022-09-03T02:33:01;94474.25;;;14.78;100.00
23164;BME280;31429;42.674;23.350;2022-09-03T03:17:19;94732.34;;;16.29;100.00
23164;BME280;31429;42.674;23.350;2022-09-03T03:18:58;94637.34;;;15.65;100.00
23164;BME280;31429;42.674;23.350;2022-09-03T03:20:15;94559.53;;;15.30;100.00
23164;BME280;31429;42.674;23.350;2022-09-03T03:21:27;94616.97;;;15.32;100.00
23164;BME280;31429;42.674;23.350;2022-09-03T03:23:30;94441.59;;;14.50;100.00
23164;BME280;31429;42.674;23.350;2022-09-03T03:25:13;94486.16;;;14.65;100.00
23164;BME280;31429;42.674;23.350;2022-09-03T03:32:39;94545.19;;;15.12;100.00
23164;BME280;31429;42.674;23.350;2022-09-03T03:33:43;94732.25;;;16.44;100.00
23164;BME280;31429;42.674;23.350;2022-09-03T03:34:45;94576.72;;;15.73;100.00
23164;BME280;31429;42.674;23.350;2022-09-03T03:35:46;94773.25;;;16.91;100.00
23164;BME280;31429;42.674;23.350;2022-09-03T03:36:47;94751.00;;;16.89;100.00
23164;BME280;31429;42.674;23.350;2022-09-03T03:37:48;94723.41;;;16.48;100.00
23164;BME280;31429;42.674;23.350;2022-09-03T03:38:53;94761.75;;;16.83;100.00
23164;BME280;31429;42.674;23.350;2022-09-03T03:40:16;94460.94;;;15.28;100.00
23164;BME280;31429;42.674;23.350;2022-09-03T03:41:38;94489.63;;;15.22;100.00
23164;BME280;31429;42.674;23.350;2022-09-03T03:44:49;94564.84;;;15.71;100.00
23164;BME280;31429;42.674;23.350;2022-09-03T03:45:58;94486.22;;;15.21;100.00
23164;BME280;31429;42.674;23.350;2022-09-03T03:47:03;94585.56;;;15.55;100.00
23164;BME280;31429;42.674;23.350;2022-09-03T03:48:08;94744.28;;;16.86;100.00
23164;BME280;31429;42.674;23.350;2022-09-03T03:49:09;94660.81;;;16.45;100.00
23164;BME280;31429;42.674;23.350;2022-09-03T03:50:11;94728.06;;;16.84;100.00
23164;BME280;31429;42.674;23.350;2022-09-03T03:51:50;94521.31;;;15.66;100.00
23164;BME280;31429;42.674;23.350;2022-09-03T03:53:11;94696.47;;;16.66;100.00
23164;BME280;31429;42.674;23.350;2022-09-03T03:54:12;94485.16;;;15.53;100.00
23164;BME280;31429;42.674;23.350;2022-09-03T03:55:37;94679.06;;;16.42;100.00
23164;BME280;31429;42.674;23.350;2022-09-03T03:57:01;94772.25;;;16.80;100.00
23164;BME280;31429;42.674;23.350;2022-09-03T03:58:03;94750.84;;;16.78;100.00
23164;BME280;31429;42.674;23.350;2022-09-03T03:59:05;94594.66;;;15.89;100.00
23164;BME280;31429;42.674;23.350;2022-09-03T04:00:07;94796.28;;;16.94;100.00
23164;BME280;31429;42.674;23.350;2022-09-03T04:01:09;94667.44;;;16.49;100.00
23164;BME280;31429;42.674;23.350;2022-09-03T04:02:12;94778.25;;;17.21;100.00
23164;BME280;31429;42.674;23.350;2022-09-03T04:03:39;94505.38;;;15.31;100.00
23164;BME280;31429;42.674;23.350;2022-09-03T04:04:42;94648.09;;;16.42;100.00
23164;BME280;31429;42.674;23.350;2022-09-03T04:05:53;94586.88;;;16.17;100.00
23164;BME280;31429;42.674;23.350;2022-09-03T04:06:57;94498.31;;;15.49;100.00
23164;BME280;31429;42.674;23.350;2022-09-03T04:08:18;94733.34;;;16.83;100.00
23164;BME280;31429;42.674;23.350;2022-09-03T04:09:20;94551.38;;;15.94;100.00
23164;BME280;31429;42.674;23.350;2022-09-03T04:10:45;94501.97;;;15.59;100.00
23164;BME280;31429;42.674;23.350;2022-09-03T04:12:10;94477.41;;;15.39;100.00
23164;BME280;31429;42.674;23.350;2022-09-03T04:13:54;94722.19;;;16.82;100.00
23164;BME280;31429;42.674;23.350;2022-09-03T04:21:04;94640.97;;;16.04;100.00
23164;BME280;31429;42.674;23.350;2022-09-03T04:22:18;94484.84;;;15.58;100.00
23164;BME280;31429;42.674;23.350;2022-09-03T04:23:20;94697.22;;;16.69;100.00
23164;BME280;31429;42.674;23.350;2022-09-03T04:24:20;94510.06;;;15.67;100.00
23164;BME280;31429;42.674;23.350;2022-09-03T04:30:37;94505.25;;;15.05;100.00
23164;BME280;31429;42.674;23.350;2022-09-03T04:32:26;94489.53;;;14.95;100.00
23164;BME280;31429;42.674;23.350;2022-09-03T04:34:27;94675.22;;;16.06;100.00
23164;BME280;31429;42.674;23.350;2022-09-03T04:57:02;94809.44;;;16.63;100.00
23164;BME280;31429;42.674;23.350;2022-09-03T04:58:05;94548.25;;;14.88;100.00
23164;BME280;31429;42.674;23.350;2022-09-03T04:59:27;94582.25;;;15.09;100.00
23164;BME280;31429;42.674;23.350;2022-09-03T05:00:50;94665.44;;;15.55;100.00
23164;BME280;31429;42.674;23.350;2022-09-03T05:02:13;94520.69;;;14.90;100.00
23164;BME280;31429;42.674;23.350;2022-09-03T05:03:27;94569.56;;;15.20;100.00
23164;BME280;31429;42.674;23.350;2022-09-03T05:04:48;94773.28;;;16.77;100.00
23164;BME280;31429;42.674;23.350;2022-09-03T05:05:55;94694.56;;;16.14;100.00
23164;BME280;31429;42.674;23.350;2022-09-03T05:06:59;94677.16;;;15.89;100.00
23164;BME280;31429;42.674;23.350;2022-09-03T05:08:42;94816.72;;;17.11;100.00
23164;BME280;31429;42.674;23.350;2022-09-03T05:10:10;94525.50;;;15.25;100.00
23164;BME280;31429;42.674;23.350;2022-09-03T05:12:15;94837.25;;;16.86;100.00
23164;BME280;31429;42.674;23.350;2022-09-03T05:14:14;94801.22;;;16.71;100.00
23164;BME280;31429;42.674;23.350;2022-09-03T05:19:25;94523.84;;;14.95;100.00
23164;BME280;31429;42.674;23.350;2022-09-03T05:21:18;94575.44;;;15.08;100.00
23164;BME280;31429;42.674;23.350;2022-09-03T05:23:09;94570.34;;;14.92;100.00
23164;BME280;31429;42.674;23.350;2022-09-03T05:24:15;94753.72;;;16.31;100.00
23164;BME280;31429;42.674;23.350;2022-09-03T05:35:26;94583.47;;;15.18;100.00
23164;BME280;31429;42.674;23.350;2022-09-03T05:36:43;94642.78;;;15.60;100.00
23164;BME280;31429;42.674;23.350;2022-09-03T05:37:49;94672.97;;;15.58;100.00
23164;BME280;31429;42.674;23.350;2022-09-03T05:39:24;94799.09;;;16.63;100.00
23164;BME280;31429;42.674;23.350;2022-09-03T05:41:15;94543.88;;;15.05;100.00
23164;BME280;31429;42.674;23.350;2022-09-03T05:46:19;94688.66;;;15.83;100.00
23164;BME280;31429;42.674;23.350;2022-09-03T07:12:46;94615.47;;;16.55;100.00
23164;BME280;31429;42.674;23.350;2022-09-03T07:13:52;94771.31;;;17.48;100.00
23164;BME280;31429;42.674;23.350;2022-09-03T07:15:14;94700.72;;;16.94;100.00
23164;BME280;31429;42.674;23.350;2022-09-03T07:16:24;94708.66;;;17.05;100.00
23164;BME280;31429;42.674;23.350;2022-09-03T07:17:30;94651.56;;;16.69;100.00
23164;BME280;31429;42.674;23.350;2022-09-03T07:18:52;94630.75;;;16.58;100.00
23164;BME280;31429;42.674;23.350;2022-09-03T07:19:59;94910.94;;;18.28;100.00
23164;BME280;31429;42.674;23.350;2022-09-03T07:21:34;94852.97;;;17.79;100.00
23164;BME280;31429;42.674;23.350;2022-09-03T07:29:14;94759.84;;;17.52;100.00
23164;BME280;31429;42.674;23.350;2022-09-03T07:30:22;94631.66;;;16.71;100.00
23164;BME280;31429;42.674;23.350;2022-09-03T07:31:32;94880.84;;;18.40;100.00
23164;BME280;31429;42.674;23.350;2022-09-03T07:32:37;94628.78;;;17.02;100.00
23164;BME280;31429;42.674;23.350;2022-09-03T07:33:59;94794.56;;;18.02;100.00
23164;BME280;31429;42.674;23.350;2022-09-03T07:35:01;94918.41;;;18.98;100.00
23164;BME280;31429;42.674;23.350;2022-09-03T07:36:08;94787.09;;;18.22;100.00
23164;BME280;31429;42.674;23.350;2022-09-03T07:37:10;94849.06;;;18.51;100.00
23164;BME280;31429;42.674;23.350;2022-09-03T07:38:32;94649.44;;;17.02;100.00
23164;BME280;31429;42.674;23.350;2022-09-03T07:39:38;94918.28;;;18.74;100.00
23164;BME280;31429;42.674;23.350;2022-09-03T07:41:01;94914.97;;;18.84;100.00
23164;BME280;31429;42.674;23.350;2022-09-03T07:42:33;94851.53;;;18.39;100.00
23164;BME280;31429;42.674;23.350;2022-09-03T07:43:42;94655.44;;;17.15;100.00
23164;BME280;31429;42.674;23.350;2022-09-03T07:45:31;94671.41;;;17.22;100.00
23164;BME280;31429;42.674;23.350;2022-09-03T07:46:52;94924.50;;;18.71;100.00
23164;BME280;31429;42.674;23.350;2022-09-03T07:47:55;94923.28;;;18.77;100.00
23164;BME280;31429;42.674;23.350;2022-09-03T07:53:10;94740.19;;;17.76;100.00
23164;BME280;31429;42.674;23.350;2022-09-03T07:54:11;94799.09;;;17.98;100.00
23164;BME280;31429;42.674;23.350;2022-09-03T07:55:17;94644.69;;;17.09;100.00
23164;BME280;31429;42.674;23.350;2022-09-03T07:56:18;94725.16;;;17.56;100.00
23164;BME280;31429;42.674;23.350;2022-09-03T07:57:41;94911.66;;;18.82;100.00
23164;BME280;31429;42.674;23.350;2022-09-03T07:58:43;94820.06;;;18.33;100.00
23164;BME280;31429;42.674;23.350;2022-09-03T07:59:47;94854.88;;;18.54;100.00
23164;BME280;31429;42.674;23.350;2022-09-03T08:01:35;94698.59;;;17.67;100.00
23164;BME280;31429;42.674;23.350;2022-09-03T08:02:36;94824.13;;;18.50;100.00
23164;BME280;31429;42.674;23.350;2022-09-03T08:03:43;94759.28;;;18.13;100.00
23164;BME280;31429;42.674;23.350;2022-09-03T08:04:44;94895.28;;;18.82;100.00
23164;BME280;31429;42.674;23.350;2022-09-03T08:05:55;94664.53;;;17.08;100.00
23164;BME280;31429;42.674;23.350;2022-09-03T08:07:05;94743.84;;;17.99;100.00
23164;BME280;31429;42.674;23.350;2022-09-03T08:08:27;94948.56;;;19.11;100.00
23164;BME280;31429;42.674;23.350;2022-09-03T08:10:10;94829.47;;;18.47;100.00
23164;BME280;31429;42.674;23.350;2022-09-03T08:11:35;94667.09;;;17.48;100.00
23164;BME280;31429;42.674;23.350;2022-09-03T08:12:37;94688.66;;;17.61;100.00
23164;BME280;31429;42.674;23.350;2022-09-03T08:13:38;94683.69;;;17.58;100.00
23164;BME280;31429;42.674;23.350;2022-09-03T08:14:40;94717.53;;;17.80;100.00
23164;BME280;31429;42.674;23.350;2022-09-03T08:15:52;94774.06;;;17.99;100.00
23164;BME280;31429;42.674;23.350;2022-09-03T08:29:36;94931.06;;;19.40;100.00
23164;BME280;31429;42.674;23.350;2022-09-03T08:31:04;94700.97;;;17.70;100.00
23164;BME280;31429;42.674;23.350;2022-09-03T08:32:12;94657.19;;;17.54;100.00
23164;BME280;31429;42.674;23.350;2022-09-03T08:33:14;94742.81;;;18.27;100.00
23164;BME280;31429;42.674;23.350;2022-09-03T08:34:15;94924.28;;;19.25;100.00
23164;BME280;31429;42.674;23.350;2022-09-03T08:35:38;94700.59;;;18.01;100.00
23164;BME280;31429;42.674;23.350;2022-09-03T08:36:40;94778.00;;;18.80;100.00
23164;BME280;31429;42.674;23.350;2022-09-03T08:37:44;94939.41;;;19.69;100.00
23164;BME280;31429;42.674;23.350;2022-09-03T08:38:51;94947.88;;;19.83;100.00
23164;BME280;31429;42.674;23.350;2022-09-03T08:40:16;94702.63;;;18.47;100.00
23164;BME280;31429;42.674;23.350;2022-09-03T08:41:21;94855.66;;;19.43;100.00
23164;BME280;31429;42.674;23.350;2022-09-03T08:42:49;94856.06;;;19.49;100.00
23164;BME280;31429;42.674;23.350;2022-09-03T08:44:08;94765.03;;;19.29;100.00
23164;BME280;31429;42.674;23.350;2022-09-03T08:45:35;94819.88;;;19.35;100.00
23164;BME280;31429;42.674;23.350;2022-09-03T08:46:46;94751.03;;;19.19;100.00
23164;BME280;31429;42.674;23.350;2022-09-03T08:47:58;94913.53;;;20.03;100.00
23164;BME280;31429;42.674;23.350;2022-09-03T08:49:26;94751.72;;;19.10;100.00
23164;BME280;31429;42.674;23.350;2022-09-03T08:50:39;94762.47;;;18.80;100.00
23164;BME280;31429;42.674;23.350;2022-09-03T08:51:45;94944.94;;;19.88;100.00
23164;BME280;31429;42.674;23.350;2022-09-03T08:52:50;94862.88;;;19.50;100.00
23164;BME280;31429;42.674;23.350;2022-09-03T09:03:28;94763.41;;;19.15;100.00
23164;BME280;31429;42.674;23.350;2022-09-03T09:04:45;94745.44;;;19.01;100.00
23164;BME280;31429;42.674;23.350;2022-09-03T09:06:17;94869.34;;;19.69;100.00
23164;BME280;31429;42.674;23.350;2022-09-03T09:09:11;94731.50;;;19.02;100.00
23164;BME280;31429;42.674;23.350;2022-09-03T09:10:20;94826.63;;;19.62;100.00
23164;BME280;31429;42.674;23.350;2022-09-03T09:11:39;94726.13;;;19.05;100.00
23164;BME280;31429;42.674;23.350;2022-09-03T09:27:20;94862.63;;;20.48;100.00
23164;BME280;31429;42.674;23.350;2022-09-03T09:29:11;94817.97;;;20.43;100.00
23164;BME280;31429;42.674;23.350;2022-09-03T09:30:34;94700.16;;;19.41;100.00
23164;BME280;31429;42.674;23.350;2022-09-03T09:31:42;94801.09;;;20.03;100.00
23164;BME280;31429;42.674;23.350;2022-09-03T09:32:46;94677.47;;;19.56;100.00
23164;BME280;31429;42.674;23.350;2022-09-03T09:33:48;94952.13;;;21.25;100.00
23164;BME280;31429;42.674;23.350;2022-09-03T09:34:54;94685.59;;;19.52;100.00
23164;BME280;31429;42.674;23.350;2022-09-03T09:49:21;94681.94;;;19.89;100.00
23164;BME280;31429;42.674;23.350;2022-09-03T09:51:11;94829.50;;;20.85;100.00
23164;BME280;31429;42.674;23.350;2022-09-03T09:52:15;94881.97;;;21.01;100.00
23164;BME280;31429;42.674;23.350;2022-09-03T09:54:01;94764.72;;;20.38;100.00
23164;BME280;31429;42.674;23.350;2022-09-03T09:55:29;94891.47;;;21.25;100.00
23164;BME280;31429;42.674;23.350;2022-09-03T09:56:57;94790.38;;;20.87;100.00
23164;BME280;31429;42.674;23.350;2022-09-03T09:58:48;94849.47;;;20.96;100.00
23164;BME280;31429;42.674;23.350;2022-09-03T10:05:28;94824.94;;;20.32;100.00
23164;BME280;31429;42.674;23.350;2022-09-03T10:06:41;94669.91;;;19.53;100.00
23164;BME280;31429;42.674;23.350;2022-09-03T10:08:20;94958.00;;;21.27;100.00
23164;BME280;31429;42.674;23.350;2022-09-03T10:09:33;94817.88;;;20.45;100.00
23164;BME280;31429;42.674;23.350;2022-09-03T10:10:43;94812.44;;;20.13;100.00
23164;BME280;31429;42.674;23.350;2022-09-03T10:11:47;94877.22;;;21.06;100.00
23164;BME280;31429;42.674;23.350;2022-09-03T10:13:05;94748.81;;;20.76;100.00
23164;BME280;31429;42.674;23.350;2022-09-03T10:15:10;94857.13;;;21.64;100.00
23164;BME280;31429;42.674;23.350;2022-09-03T10:19:55;94929.50;;;21.92;100.00
23164;BME280;31429;42.674;23.350;2022-09-03T10:21:52;94936.81;;;22.41;100.00
23164;BME280;31429;42.674;23.350;2022-09-03T10:26:46;94928.00;;;22.21;100.00
23164;BME280;31429;42.674;23.350;2022-09-03T10:28:13;94724.72;;;20.85;100.00
23164;BME280;31429;42.674;23.350;2022-09-03T10:30:00;94717.19;;;20.71;100.00
23164;BME280;31429;42.674;23.350;2022-09-03T10:36:36;94688.34;;;20.85;100.00
23164;BME280;31429;42.674;23.350;2022-09-03T10:47:56;94844.66;;;21.78;100.00
23164;BME280;31429;42.674;23.350;2022-09-03T10:49:35;94695.25;;;21.17;100.00
23164;BME280;31429;42.674;23.350;2022-09-03T10:59:11;94718.44;;;21.09;100.00
23164;BME280;31429;42.674;23.350;2022-09-03T11:00:22;94723.84;;;21.17;100.00
23164;BME280;31429;42.674;23.350;2022-09-03T11:23:30;94948.44;;;22.69;100.00
23164;BME280;31429;42.674;23.350;2022-09-03T11:24:58;94890.13;;;22.49;100.00
23164;BME280;31429;42.674;23.350;2022-09-03T11:32:54;94793.69;;;21.87;100.00
23164;BME280;31429;42.674;23.350;2022-09-03T11:38:18;94831.16;;;21.96;100.00
23164;BME280;31429;42.674;23.350;2022-09-03T11:40:28;94707.03;;;21.33;100.00
23164;BME280;31429;42.674;23.350;2022-09-03T16:34:34;94692.22;;;19.32;100.00
23164;BME280;31429;42.674;23.350;2022-09-03T16:42:28;94818.72;;;19.87;100.00
23164;BME280;31429;42.674;23.350;2022-09-03T16:43:40;94804.50;;;19.69;100.00
23164;BME280;31429;42.674;23.350;2022-09-03T16:45:15;94968.81;;;20.64;100.00
23164;BME280;31429;42.674;23.350;2022-09-03T16:46:28;94746.66;;;19.32;100.00
23164;BME280;31429;42.674;23.350;2022-09-03T16:48:01;94701.03;;;19.06;100.00
23164;BME280;31429;42.674;23.350;2022-09-03T16:49:26;94855.16;;;20.09;100.00
23164;BME280;31429;42.674;23.350;2022-09-03T16:51:09;94809.03;;;19.78;100.00
23164;BME280;31429;42.674;23.350;2022-09-03T16:53:22;94955.75;;;20.66;100.00
23164;BME280;31429;42.674;23.350;2022-09-03T16:54:56;94815.41;;;19.61;100.00
23164;BME280;31429;42.674;23.350;2022-09-03T16:56:13;94749.06;;;19.22;100.00
23164;BME280;31429;42.674;23.350;2022-09-03T16:57:23;94958.06;;;20.57;100.00
23164;BME280;31429;42.674;23.350;2022-09-03T16:58:36;94949.53;;;20.55;100.00
23164;BME280;31429;42.674;23.350;2022-09-03T16:59:56;94968.56;;;20.56;100.00
23164;BME280;31429;42.674;23.350;2022-09-03T17:01:10;94792.16;;;19.48;100.00
23164;BME280;31429;42.674;23.350;2022-09-03T17:02:33;94890.91;;;20.05;100.00
23164;BME280;31429;42.674;23.350;2022-09-03T17:04:23;94749.13;;;19.10;100.00
23164;BME280;31429;42.674;23.350;2022-09-03T17:07:36;94899.72;;;20.03;100.00
23164;BME280;31429;42.674;23.350;2022-09-03T17:08:49;94972.38;;;20.39;100.00
23164;BME280;31429;42.674;23.350;2022-09-03T17:10:02;94971.28;;;20.31;100.00
23164;BME280;31429;42.674;23.350;2022-09-03T17:15:29;94971.63;;;20.26;100.00
23164;BME280;31429;42.674;23.350;2022-09-03T17:16:44;94903.34;;;19.89;100.00
23164;BME280;31429;42.674;23.350;2022-09-03T17:18:04;94893.00;;;19.77;100.00
23164;BME280;31429;42.674;23.350;2022-09-03T17:19:13;94843.91;;;19.37;100.00
23164;BME280;31429;42.674;23.350;2022-09-03T17:20:36;94935.84;;;20.06;100.00
23164;BME280;31429;42.674;23.350;2022-09-03T17:21:47;94878.78;;;19.70;100.00
23164;BME280;31429;42.674;23.350;2022-09-03T17:23:00;94865.75;;;19.59;100.00
23164;BME280;31429;42.674;23.350;2022-09-03T17:25:51;94749.75;;;18.64;100.00
23164;BME280;31429;42.674;23.350;2022-09-03T17:27:09;94774.19;;;18.73;100.00
23164;BME280;31429;42.674;23.350;2022-09-03T17:28:22;94775.22;;;18.70;100.00
23164;BME280;31429;42.674;23.350;2022-09-03T17:29:51;94828.44;;;19.12;100.00
23164;BME280;31429;42.674;23.350;2022-09-03T17:31:02;94868.91;;;19.51;100.00
23164;BME280;31429;42.674;23.350;2022-09-03T17:32:21;94912.00;;;19.65;100.00
23164;BME280;31429;42.674;23.350;2022-09-03T17:33:47;94904.28;;;19.52;100.00
23164;BME280;31429;42.674;23.350;2022-09-03T17:35:03;94996.34;;;20.06;100.00
23164;BME280;31429;42.674;23.350;2022-09-03T17:36:14;94981.97;;;19.90;100.00
23164;BME280;31429;42.674;23.350;2022-09-03T17:37:28;94884.28;;;19.29;100.00
23164;BME280;31429;42.674;23.350;2022-09-03T17:38:59;94967.44;;;19.64;100.00
23164;BME280;31429;42.674;23.350;2022-09-03T17:40:31;94913.41;;;19.32;100.00
23164;BME280;31429;42.674;23.350;2022-09-03T17:41:43;95001.03;;;19.78;100.00
23164;BME280;31429;42.674;23.350;2022-09-03T17:42:53;94810.16;;;18.52;100.00
23164;BME280;31429;42.674;23.350;2022-09-03T18:17:15;95038.94;;;18.90;100.00
23164;BME280;31429;42.674;23.350;2022-09-03T18:18:28;94902.84;;;17.94;100.00
23164;BME280;31429;42.674;23.350;2022-09-03T18:19:41;94942.44;;;18.08;100.00
23164;BME280;31429;42.674;23.350;2022-09-03T18:21:08;94851.19;;;17.39;100.00
23164;BME280;31429;42.674;23.350;2022-09-03T18:22:46;94895.38;;;17.76;100.00
23164;BME280;31429;42.674;23.350;2022-09-03T18:24:22;94787.44;;;16.98;100.00
23164;BME280;31429;42.674;23.350;2022-09-03T18:25:48;94803.47;;;17.03;100.00
23164;BME280;31429;42.674;23.350;2022-09-03T18:36:10;94931.97;;;17.42;100.00
23164;BME280;31429;42.674;23.350;2022-09-03T18:37:31;94918.78;;;17.18;100.00
23164;BME280;31429;42.674;23.350;2022-09-03T18:39:14;94839.94;;;16.56;100.00
23164;BME280;31429;42.674;23.350;2022-09-03T18:40:38;95086.91;;;18.02;100.00
23164;BME280;31429;42.674;23.350;2022-09-03T18:42:12;94970.09;;;17.39;100.00
23164;BME280;31429;42.674;23.350;2022-09-03T18:43:41;94972.69;;;17.39;100.00
23164;BME280;31429;42.674;23.350;2022-09-03T18:45:14;94952.25;;;17.34;100.00
23164;BME280;31429;42.674;23.350;2022-09-03T18:46:46;95033.81;;;17.68;100.00
23164;BME280;31429;42.674;23.350;2022-09-03T18:48:33;94892.31;;;16.87;100.00
23164;BME280;31429;42.674;23.350;2022-09-03T18:50:03;94812.94;;;16.32;100.00
23164;BME280;31429;42.674;23.350;2022-09-03T18:51:37;94802.34;;;16.08;100.00
23164;BME280;31429;42.674;23.350;2022-09-03T18:53:02;94931.16;;;16.85;100.00
23164;BME280;31429;42.674;23.350;2022-09-03T18:54:34;94793.09;;;15.90;100.00
23164;BME280;31429;42.674;23.350;2022-09-03T18:56:38;95042.97;;;17.59;100.00
23164;BME280;31429;42.674;23.350;2022-09-03T18:58:09;94994.44;;;17.35;100.00
23164;BME280;31429;42.674;23.350;2022-09-03T19:14:51;95059.69;;;17.24;100.00
23164;BME280;31429;42.674;23.350;2022-09-03T19:17:03;94953.56;;;16.55;100.00
23164;BME280;31429;42.674;23.350;2022-09-03T19:18:43;94836.13;;;15.74;100.00
23164;BME280;31429;42.674;23.350;2022-09-03T19:20:12;95086.34;;;17.10;100.00
23164;BME280;31429;42.674;23.350;2022-09-03T19:23:32;94856.06;;;15.86;100.00
23164;BME280;31429;42.674;23.350;2022-09-03T19:25:01;95054.50;;;17.10;100.00
23164;BME280;31429;42.674;23.350;2022-09-03T19:26:26;94889.44;;;16.03;100.00
23164;BME280;31429;42.674;23.350;2022-09-03T19:28:12;95070.13;;;17.08;100.00
23164;BME280;31429;42.674;23.350;2022-09-03T19:29:47;94919.13;;;16.10;100.00
23164;BME280;31429;42.674;23.350;2022-09-03T19:36:08;95077.34;;;16.88;100.00
23164;BME280;31429;42.674;23.350;2022-09-03T19:37:36;94822.13;;;15.17;100.00
23164;BME280;31429;42.674;23.350;2022-09-03T19:39:33;94810.56;;;15.09;100.00
23164;BME280;31429;42.674;23.350;2022-09-03T19:41:01;94902.22;;;15.75;100.00
23164;BME280;31429;42.674;23.350;2022-09-03T19:42:34;94950.75;;;15.98;100.00
23164;BME280;31429;42.674;23.350;2022-09-03T19:44:13;94823.94;;;15.31;100.00
23164;BME280;31429;42.674;23.350;2022-09-03T19:45:48;94906.63;;;15.73;100.00
23164;BME280;31429;42.674;23.350;2022-09-03T19:47:22;94889.88;;;15.66;100.00
23164;BME280;31429;42.674;23.350;2022-09-03T19:48:55;95052.38;;;16.73;100.00
23164;BME280;31429;42.674;23.350;2022-09-03T19:50:21;95025.06;;;16.53;100.00
23164;BME280;31429;42.674;23.350;2022-09-03T19:52:09;94804.69;;;15.07;100.00
23164;BME280;31429;42.674;23.350;2022-09-03T19:53:40;94845.16;;;15.51;100.00
23164;BME280;31429;42.674;23.350;2022-09-03T19:55:26;94807.34;;;15.21;100.00
23164;BME280;31429;42.674;23.350;2022-09-03T19:56:49;94845.22;;;15.34;100.00
23164;BME280;31429;42.674;23.350;2022-09-03T19:58:34;94819.78;;;15.13;100.00
23164;BME280;31429;42.674;23.350;2022-09-03T20:00:24;94981.38;;;16.20;100.00
23164;BME280;31429;42.674;23.350;2022-09-03T20:01:48;94823.88;;;15.01;100.00
23164;BME280;31429;42.674;23.350;2022-09-03T20:03:28;94785.97;;;14.87;100.00
23164;BME280;31429;42.674;23.350;2022-09-03T20:08:49;95080.44;;;16.47;100.00
23164;BME280;31429;42.674;23.350;2022-09-03T20:10:52;94814.13;;;14.75;100.00
23164;BME280;31429;42.674;23.350;2022-09-03T20:12:52;94900.06;;;15.21;100.00
23164;BME280;31429;42.674;23.350;2022-09-03T20:26:36;94838.16;;;15.07;100.00
23164;BME280;31429;42.674;23.350;2022-09-03T20:28:12;95000.94;;;16.08;100.00
23164;BME280;31429;42.674;23.350;2022-09-03T20:29:33;95049.31;;;16.35;100.00
23164;BME280;31429;42.674;23.350;2022-09-03T20:30:45;94863.50;;;15.14;100.00
23164;BME280;31429;42.674;23.350;2022-09-03T20:32:09;94814.47;;;15.00;100.00
23164;BME280;31429;42.674;23.350;2022-09-03T20:33:27;94953.13;;;15.72;100.00
23164;BME280;31429;42.674;23.350;2022-09-03T20:34:41;94958.53;;;15.67;100.00
23164;BME280;31429;42.674;23.350;2022-09-03T20:38:26;94870.59;;;14.93;100.00
23164;BME280;31429;42.674;23.350;2022-09-03T20:39:44;95090.44;;;16.38;100.00
23164;BME280;31429;42.674;23.350;2022-09-03T20:40:56;94851.91;;;14.90;100.00
23164;BME280;31429;42.674;23.350;2022-09-03T20:42:22;95095.69;;;16.36;100.00
23164;BME280;31429;42.674;23.350;2022-09-03T20:44:01;95074.88;;;16.24;100.00
23164;BME280;31429;42.674;23.350;2022-09-03T20:45:57;94942.91;;;15.55;100.00
23164;BME280;31429;42.674;23.350;2022-09-03T20:47:11;94984.69;;;15.75;100.00
23164;BME280;31429;42.674;23.350;2022-09-03T20:48:17;94966.25;;;15.67;100.00
23164;BME280;31429;42.674;23.350;2022-09-03T20:49:34;95044.63;;;16.12;100.00
23164;BME280;31429;42.674;23.350;2022-09-03T20:50:45;94862.13;;;14.91;100.00
23164;BME280;31429;42.674;23.350;2022-09-03T20:52:12;95045.75;;;15.90;100.00
23164;BME280;31429;42.674;23.350;2022-09-03T20:53:34;94947.41;;;15.34;100.00